createdAt,value
2023-03-20T00:01:26.543Z,81.62
2023-03-20T00:03:53.032Z,81.43
2023-03-20T00:06:22.242Z,81.11
2023-03-20T00:08:51.760Z,80.97
2023-03-20T00:11:29.131Z,81.03
2023-03-20T00:14:07.777Z,81.10
2023-03-20T00:16:39.866Z,81.10
2023-03-20T00:19:14.296Z,82.13
2023-03-20T00:21:40.951Z,81.87
2023-03-20T00:24:08.125Z,81.77
2023-03-20T00:26:36.910Z,81.69
2023-03-20T00:29:05.148Z,81.37
2023-03-20T00:31:34.513Z,81.43
2023-03-20T00:34:03.624Z,81.39
2023-03-20T00:36:30.062Z,82.54
2023-03-20T00:38:57.877Z,82.64
2023-03-20T00:41:41.627Z,82.48
2023-03-20T00:44:31.899Z,82.55
2023-03-20T00:47:00.925Z,82.33
2023-03-20T00:49:33.340Z,82.56
2023-03-20T00:52:01.525Z,82.37
2023-03-20T00:54:28.256Z,82.25
2023-03-20T00:56:59.779Z,82.80
2023-03-20T00:59:31.194Z,82.60
2023-03-20T01:01:59.332Z,82.43
2023-03-20T01:04:34.289Z,82.27
2023-03-20T01:07:00.772Z,82.59
2023-03-20T01:09:27.203Z,82.88
2023-03-20T01:11:54.151Z,82.73
2023-03-20T01:14:20.570Z,82.78
2023-03-20T01:16:47.009Z,82.94
2023-03-20T01:19:16.778Z,82.64
2023-03-20T01:21:43.555Z,83.15
2023-03-20T01:24:10.073Z,83.39
2023-03-20T01:26:39.223Z,82.95
2023-03-20T01:29:24.438Z,82.94
2023-03-20T01:31:52.440Z,82.71
2023-03-20T01:34:20.916Z,83.10
2023-03-20T01:36:51.495Z,83.25
2023-03-20T01:39:19.245Z,82.91
2023-03-20T01:41:47.156Z,82.49
2023-03-20T01:44:21.167Z,82.78
2023-03-20T01:46:48.808Z,82.60
2023-03-20T01:49:21.227Z,82.88
2023-03-20T01:51:48.924Z,83.29
2023-03-20T01:54:22.987Z,83.15
2023-03-20T01:56:57.117Z,83.59
2023-03-20T01:59:31.682Z,83.55
2023-03-20T02:02:00.301Z,83.56
2023-03-20T02:04:31.208Z,83.85
2023-03-20T02:06:57.769Z,84.62
2023-03-20T02:09:24.169Z,84.51
2023-03-20T02:11:52.293Z,84.28
2023-03-20T02:14:20.045Z,84.69
2023-03-20T02:16:47.705Z,84.34
2023-03-20T02:19:29.341Z,84.95
2023-03-20T02:22:30.596Z,85.58
2023-03-20T02:25:06.983Z,85.40
2023-03-20T02:27:42.996Z,84.94
2023-03-20T02:30:29.300Z,85.24
2023-03-20T02:33:17.344Z,84.92
2023-03-20T02:36:05.298Z,85.31
2023-03-20T02:38:40.808Z,85.29
2023-03-20T02:41:21.981Z,84.75
2023-03-20T02:43:59.513Z,85.23
2023-03-20T02:46:46.194Z,84.64
2023-03-20T02:49:42.886Z,84.42
2023-03-20T02:52:34.414Z,84.25
2023-03-20T02:55:09.217Z,84.84
2023-03-20T02:57:53.929Z,84.79
2023-03-20T03:00:36.607Z,84.31
2023-03-20T03:03:08.849Z,84.67
2023-03-20T03:05:45.505Z,84.87
2023-03-20T03:08:14.471Z,84.99
2023-03-20T03:10:57.411Z,85.43
2023-03-20T03:13:29.346Z,85.79
2023-03-20T03:16:03.148Z,85.75
2023-03-20T03:18:32.181Z,85.32
2023-03-20T03:21:02.367Z,85.26
2023-03-20T03:23:37.659Z,84.61
2023-03-20T03:26:06.736Z,84.72
2023-03-20T03:28:39.320Z,84.82
2023-03-20T03:31:08.386Z,85.47
2023-03-20T03:33:39.837Z,85.52
2023-03-20T03:36:17.191Z,86.04
2023-03-20T03:38:52.693Z,86.40
2023-03-20T03:41:38.059Z,86.29
2023-03-20T03:44:26.362Z,86.66
2023-03-20T03:47:18.205Z,86.10
2023-03-20T03:49:55.726Z,87.10
2023-03-20T03:52:24.946Z,87.02
2023-03-20T03:54:57.777Z,86.88
2023-03-20T03:57:34.167Z,87.38
2023-03-20T04:00:03.263Z,87.63
2023-03-20T04:02:30.515Z,88.04
2023-03-20T04:04:58.310Z,87.89
2023-03-20T04:07:27.680Z,88.38
2023-03-20T04:09:54.522Z,88.83
2023-03-20T04:12:43.806Z,88.66
2023-03-20T04:15:14.567Z,88.47
2023-03-20T04:17:40.941Z,88.34
2023-03-20T04:20:08.943Z,89.14
2023-03-20T04:22:35.598Z,88.78
2023-03-20T04:25:04.018Z,88.70
2023-03-20T04:27:30.398Z,88.98
2023-03-20T04:29:56.828Z,88.65
2023-03-20T04:32:23.573Z,88.94
2023-03-20T04:34:49.960Z,89.18
2023-03-20T04:37:16.330Z,89.25
2023-03-20T04:39:42.986Z,89.10
2023-03-20T04:42:09.695Z,89.55
2023-03-20T04:44:36.184Z,89.39
2023-03-20T04:47:02.569Z,89.32
2023-03-20T04:49:28.960Z,88.99
2023-03-20T04:51:56.134Z,88.82
2023-03-20T04:54:22.549Z,89.25
2023-03-20T04:56:48.959Z,89.25
2023-03-20T04:59:15.745Z,89.46
2023-03-20T05:01:42.182Z,89.98
2023-03-20T05:04:08.773Z,89.98
2023-03-20T05:06:35.332Z,89.71
2023-03-20T05:09:01.838Z,90.13
2023-03-20T05:11:28.891Z,89.54
2023-03-20T05:13:55.336Z,89.58
2023-03-20T05:16:21.850Z,89.63
2023-03-20T05:18:48.253Z,91.58
2023-03-20T05:21:15.055Z,90.44
2023-03-20T05:23:41.749Z,90.69
2023-03-20T05:26:08.109Z,90.34
2023-03-20T05:28:34.685Z,90.80
2023-03-20T05:31:01.137Z,90.68
2023-03-20T05:33:27.621Z,89.82
2023-03-20T05:35:54.062Z,89.69
2023-03-20T05:38:22.727Z,89.44
2023-03-20T05:40:49.879Z,89.98
2023-03-20T05:43:16.448Z,89.71
2023-03-20T05:45:43.264Z,89.42
2023-03-20T05:48:09.657Z,89.42
2023-03-20T05:50:36.129Z,89.36
2023-03-20T05:53:02.642Z,90.67
2023-03-20T05:55:29.006Z,90.54
2023-03-20T05:57:55.404Z,90.28
2023-03-20T06:00:22.238Z,89.98
2023-03-20T06:02:48.760Z,90.16
2023-03-20T06:05:15.231Z,90.32
2023-03-20T06:07:41.615Z,90.85
2023-03-20T06:10:09.083Z,91.08
2023-03-20T06:12:35.646Z,91.87
2023-03-20T06:15:02.204Z,92.72
2023-03-20T06:17:29.084Z,94.16
2023-03-20T06:19:55.529Z,94.61
2023-03-20T06:22:21.927Z,95.32
2023-03-20T06:24:48.831Z,94.46
2023-03-20T06:27:15.846Z,94.98
2023-03-20T06:29:42.496Z,95.94
2023-03-20T06:32:10.754Z,95.33
2023-03-20T06:34:37.536Z,94.86
2023-03-20T06:37:03.927Z,94.70
2023-03-20T06:39:30.398Z,94.30
2023-03-20T06:41:57.057Z,94.70
2023-03-20T06:44:23.526Z,95.27
2023-03-20T06:46:50.470Z,95.86
2023-03-20T06:49:17.001Z,94.84
2023-03-20T06:51:43.584Z,95.75
2023-03-20T06:54:09.947Z,95.75
2023-03-20T06:56:36.911Z,95.83
2023-03-20T06:59:03.290Z,96.80
2023-03-20T07:01:29.909Z,97.85
2023-03-20T07:03:56.878Z,98.36
2023-03-20T07:06:23.387Z,98.37
2023-03-20T07:08:51.864Z,98.17
2023-03-20T07:11:18.649Z,99.26
2023-03-20T07:13:47.425Z,100.00
2023-03-20T07:16:15.230Z,100.00
2023-03-20T07:18:41.672Z,100.00
2023-03-20T07:21:08.209Z,100.00
2023-03-20T07:23:35.423Z,100.00
2023-03-20T07:26:01.863Z,100.00
2023-03-20T07:28:28.606Z,100.00
2023-03-20T07:30:55.261Z,100.00
2023-03-20T07:33:21.784Z,100.00
2023-03-20T07:35:52.690Z,100.00
2023-03-20T07:38:19.294Z,100.00
2023-03-20T07:40:45.703Z,99.96
2023-03-20T07:43:12.321Z,100.00
2023-03-20T07:45:39.031Z,100.00
2023-03-20T07:48:05.854Z,99.72
2023-03-20T07:50:32.330Z,99.73
2023-03-20T07:52:58.988Z,99.74
2023-03-20T07:55:25.549Z,99.13
2023-03-20T07:57:52.167Z,99.07
2023-03-20T08:00:20.268Z,98.62
2023-03-20T08:02:47.086Z,98.70
2023-03-20T08:05:13.618Z,98.61
2023-03-20T08:07:40.271Z,98.68
2023-03-20T08:10:07.240Z,98.43
2023-03-20T08:12:33.869Z,98.38
2023-03-20T08:15:00.264Z,98.39
2023-03-20T08:17:26.724Z,99.35
2023-03-20T08:19:53.150Z,98.50
2023-03-20T08:22:20.017Z,98.06
2023-03-20T08:24:46.429Z,97.63
2023-03-20T08:27:12.813Z,97.07
2023-03-20T08:29:39.227Z,95.84
2023-03-20T08:32:06.145Z,96.09
2023-03-20T08:34:33.739Z,95.38
2023-03-20T08:37:00.531Z,94.91
2023-03-20T08:39:27.302Z,94.76
2023-03-20T08:41:53.868Z,94.73
2023-03-20T08:44:20.364Z,94.78
2023-03-20T08:46:47.407Z,94.07
2023-03-20T08:49:14.522Z,94.12
2023-03-20T08:51:41.125Z,92.80
2023-03-20T08:54:07.950Z,92.46
2023-03-20T08:56:34.324Z,92.91
2023-03-20T08:59:01.063Z,92.07
2023-03-20T09:01:41.826Z,91.29
2023-03-20T09:04:14.681Z,90.76
2023-03-20T09:06:41.742Z,90.44
2023-03-20T09:09:08.122Z,90.79
2023-03-20T09:11:34.560Z,91.76
2023-03-20T09:14:01.144Z,91.31
2023-03-20T09:16:28.116Z,89.92
2023-03-20T09:18:55.052Z,89.68
2023-03-20T09:21:21.483Z,90.18
2023-03-20T09:23:47.874Z,89.46
2023-03-20T09:26:14.288Z,87.07
2023-03-20T09:28:40.863Z,87.07
2023-03-20T09:31:07.326Z,85.82
2023-03-20T09:33:33.796Z,84.46
2023-03-20T09:36:00.593Z,85.33
2023-03-20T09:38:27.488Z,84.70
2023-03-20T09:40:57.344Z,84.91
2023-03-20T09:43:43.542Z,83.80
2023-03-20T09:46:28.680Z,83.98
2023-03-20T09:49:07.974Z,83.97
2023-03-20T09:51:55.264Z,82.50
2023-03-20T09:54:32.378Z,81.62
2023-03-20T09:57:03.351Z,82.41
2023-03-20T09:59:33.252Z,80.73
2023-03-20T10:02:06.070Z,81.63
2023-03-20T10:04:33.356Z,81.73
2023-03-20T10:07:00.123Z,81.54
2023-03-20T10:09:31.662Z,80.52
2023-03-20T10:12:30.991Z,79.97
2023-03-20T10:15:02.030Z,79.99
2023-03-20T10:17:35.299Z,79.41
2023-03-20T10:20:23.101Z,78.86
2023-03-20T10:22:56.228Z,78.27
2023-03-20T10:25:31.115Z,77.86
2023-03-20T10:28:00.860Z,77.77
2023-03-20T10:30:36.793Z,76.20
2023-03-20T10:33:25.388Z,76.76
2023-03-20T10:36:19.717Z,76.71
2023-03-20T10:38:50.722Z,76.47
2023-03-20T10:41:21.662Z,76.07
2023-03-20T10:43:51.117Z,76.24
2023-03-20T10:46:28.928Z,76.08
2023-03-20T10:49:17.842Z,74.18
2023-03-20T10:51:58.053Z,74.09
2023-03-20T10:54:30.285Z,74.02
2023-03-20T10:57:01.954Z,73.94
2023-03-20T10:59:33.565Z,72.10
2023-03-20T11:02:00.275Z,72.58
2023-03-20T11:04:27.579Z,73.40
2023-03-20T11:07:02.712Z,72.65
2023-03-20T11:09:33.492Z,72.30
2023-03-20T11:12:02.120Z,72.06
2023-03-20T11:14:39.578Z,71.61
2023-03-20T11:17:06.652Z,71.06
2023-03-20T11:19:36.212Z,70.57
2023-03-20T11:22:24.311Z,70.42
2023-03-20T11:24:54.982Z,71.75
2023-03-20T11:27:29.738Z,71.08
2023-03-20T11:29:58.597Z,71.64
2023-03-20T11:32:34.739Z,71.30
2023-03-20T11:35:19.302Z,71.82
2023-03-20T11:37:48.196Z,71.80
2023-03-20T11:40:25.221Z,72.34
2023-03-20T11:43:04.052Z,72.72
2023-03-20T11:45:38.546Z,71.40
2023-03-20T11:48:06.731Z,72.23
2023-03-20T11:50:36.352Z,71.06
2023-03-20T11:53:18.353Z,71.58
2023-03-20T11:55:57.967Z,70.83
2023-03-20T11:58:25.389Z,70.04
2023-03-20T12:00:55.108Z,70.56
2023-03-20T12:03:43.464Z,70.47
2023-03-20T12:06:27.304Z,70.85
2023-03-20T12:09:05.999Z,70.33
2023-03-20T12:11:54.425Z,71.50
2023-03-20T12:14:28.107Z,71.19
2023-03-20T12:17:04.881Z,71.81
2023-03-20T12:19:33.263Z,72.13
2023-03-20T12:22:08.530Z,73.68
2023-03-20T12:24:46.109Z,74.29
2023-03-20T12:27:23.565Z,76.85
2023-03-20T12:30:04.179Z,80.04
2023-03-20T12:32:42.208Z,83.48
2023-03-20T12:35:33.553Z,86.81
2023-03-20T12:38:00.100Z,90.35
2023-03-20T12:40:46.103Z,93.15
2023-03-20T12:43:16.425Z,89.79
2023-03-20T12:46:11.647Z,95.98
2023-03-20T12:48:52.640Z,93.22
2023-03-20T12:51:35.702Z,93.21
2023-03-20T12:54:32.916Z,91.49
2023-03-20T12:57:28.825Z,90.43
2023-03-20T13:00:23.895Z,90.22
2023-03-20T13:03:13.256Z,88.77
2023-03-20T13:05:55.815Z,88.91
2023-03-20T13:08:43.388Z,88.58
2023-03-20T13:11:28.989Z,87.04
2023-03-20T13:14:14.176Z,87.58
2023-03-20T13:16:52.355Z,89.55
2023-03-20T13:19:42.138Z,88.22
2023-03-20T13:22:17.984Z,86.09
2023-03-20T13:25:01.734Z,89.40
2023-03-20T13:27:42.899Z,86.38
2023-03-20T13:30:15.600Z,85.97
2023-03-20T13:32:58.548Z,83.39
2023-03-20T13:35:43.683Z,84.21
2023-03-20T13:38:18.896Z,84.88
2023-03-20T13:40:47.255Z,84.62
2023-03-20T13:43:33.648Z,80.41
2023-03-20T13:46:14.715Z,78.68
2023-03-20T13:48:42.967Z,80.50
2023-03-20T13:51:26.506Z,81.19
2023-03-20T13:54:23.343Z,81.46
2023-03-20T13:57:01.640Z,81.65
2023-03-20T13:59:37.507Z,81.45
2023-03-20T14:02:17.874Z,80.14
2023-03-20T14:04:44.653Z,78.31
2023-03-20T14:07:35.900Z,78.91
2023-03-20T14:10:20.937Z,80.59
2023-03-20T14:12:55.367Z,79.83
2023-03-20T14:15:26.873Z,80.35
2023-03-20T14:17:53.520Z,79.66
2023-03-20T14:20:32.725Z,79.64
2023-03-20T14:22:59.686Z,77.88
2023-03-20T14:25:29.236Z,77.07
2023-03-20T14:27:57.061Z,77.03
2023-03-20T14:30:29.535Z,77.73
2023-03-20T14:33:14.983Z,76.35
2023-03-20T14:36:09.071Z,76.79
2023-03-20T14:38:44.507Z,76.03
2023-03-20T14:41:30.699Z,74.64
2023-03-20T14:44:19.742Z,76.35
2023-03-20T14:46:58.890Z,75.75
2023-03-20T14:49:43.791Z,75.71
2023-03-20T14:52:37.191Z,75.85
2023-03-20T14:55:22.401Z,74.61
2023-03-20T14:57:56.604Z,75.44
2023-03-20T15:00:25.935Z,75.53
2023-03-20T15:03:06.396Z,75.48
2023-03-20T15:05:36.009Z,75.46
2023-03-20T15:08:10.247Z,75.48
2023-03-20T15:10:45.534Z,76.02
2023-03-20T15:13:14.500Z,74.70
2023-03-20T15:15:58.957Z,74.30
2023-03-20T15:18:27.535Z,74.27
2023-03-20T15:20:57.898Z,75.05
2023-03-20T15:23:26.270Z,74.87
2023-03-20T15:25:53.004Z,75.28
2023-03-20T15:28:27.637Z,74.21
2023-03-20T15:30:58.858Z,74.80
2023-03-20T15:33:35.279Z,74.78
2023-03-20T15:36:36.926Z,74.82
2023-03-20T15:39:16.944Z,74.43
2023-03-20T15:41:52.397Z,74.10
2023-03-20T15:44:25.144Z,74.17
2023-03-20T15:46:52.622Z,74.63
2023-03-20T15:49:20.705Z,74.79
2023-03-20T15:51:48.213Z,75.35
2023-03-20T15:54:17.408Z,74.63
2023-03-20T15:56:46.443Z,74.26
2023-03-20T15:59:17.387Z,74.73
2023-03-20T16:01:46.506Z,75.02
2023-03-20T16:04:17.037Z,74.71
2023-03-20T16:06:55.816Z,73.49
2023-03-20T16:09:23.551Z,73.36
2023-03-20T16:12:00.126Z,73.30
2023-03-20T16:14:31.490Z,73.56
2023-03-20T16:17:00.066Z,73.55
2023-03-20T16:19:27.876Z,73.45
2023-03-20T16:21:58.303Z,73.42
2023-03-20T16:24:29.087Z,73.08
2023-03-20T16:26:57.323Z,73.33
2023-03-20T16:29:27.284Z,73.25
2023-03-20T16:32:06.978Z,72.89
2023-03-20T16:34:36.526Z,72.74
2023-03-20T16:37:08.449Z,72.66
2023-03-20T16:39:34.996Z,73.53
2023-03-20T16:42:24.841Z,73.11
2023-03-20T16:44:56.182Z,73.29
2023-03-20T16:47:36.570Z,73.01
2023-03-20T16:50:17.390Z,72.99
2023-03-20T16:52:56.030Z,73.00
2023-03-20T16:55:31.809Z,73.14
2023-03-20T16:58:05.471Z,72.80
2023-03-20T17:00:42.226Z,72.65
2023-03-20T17:03:16.503Z,72.44
2023-03-20T17:05:58.739Z,72.35
2023-03-20T17:08:37.505Z,71.91
2023-03-20T17:11:13.013Z,72.20
2023-03-20T17:13:41.871Z,72.03
2023-03-20T17:16:16.619Z,72.24
2023-03-20T17:18:46.392Z,72.32
2023-03-20T17:21:13.545Z,72.83
2023-03-20T17:23:40.873Z,72.26
2023-03-20T17:26:12.765Z,72.66
2023-03-20T17:28:39.592Z,72.50
2023-03-20T17:31:06.880Z,72.61
2023-03-20T17:33:33.855Z,72.79
2023-03-20T17:36:01.176Z,72.70
2023-03-20T17:38:27.725Z,73.09
2023-03-20T17:40:54.467Z,72.70
2023-03-20T17:43:21.010Z,72.74
2023-03-20T17:45:48.569Z,72.34
2023-03-20T17:48:18.144Z,72.59
2023-03-20T17:50:46.244Z,72.31
2023-03-20T17:53:16.123Z,72.98
2023-03-20T17:55:42.703Z,73.01
2023-03-20T17:58:14.999Z,73.05
2023-03-20T18:00:41.633Z,72.65
2023-03-20T18:03:08.112Z,72.56
2023-03-20T18:05:39.376Z,73.28
2023-03-20T18:08:12.503Z,73.28
2023-03-20T18:10:39.270Z,72.67
2023-03-20T18:13:05.941Z,73.22
2023-03-20T18:15:32.519Z,73.37
2023-03-20T18:17:59.255Z,73.08
2023-03-20T18:20:32.329Z,73.33
2023-03-20T18:22:59.196Z,73.35
2023-03-20T18:25:26.239Z,73.76
2023-03-20T18:27:56.837Z,73.93
2023-03-20T18:30:29.771Z,73.62
2023-03-20T18:32:56.271Z,73.79
2023-03-20T18:35:22.839Z,73.92
2023-03-20T18:37:49.292Z,74.20
2023-03-20T18:40:22.288Z,74.23
2023-03-20T18:42:48.856Z,73.76
2023-03-20T18:45:15.507Z,74.13
2023-03-20T18:47:42.033Z,74.10
2023-03-20T18:50:26.679Z,73.96
2023-03-20T18:52:55.303Z,74.41
2023-03-20T18:55:23.188Z,74.04
2023-03-20T18:57:50.680Z,74.28
2023-03-20T19:00:21.879Z,74.45
2023-03-20T19:02:49.788Z,74.64
2023-03-20T19:05:17.454Z,74.65
2023-03-20T19:07:43.874Z,74.72
2023-03-20T19:10:25.695Z,74.96
2023-03-20T19:12:53.592Z,74.79
2023-03-20T19:15:21.257Z,74.74
2023-03-20T19:17:47.851Z,74.50
2023-03-20T19:20:26.680Z,74.94
2023-03-20T19:22:53.168Z,74.88
2023-03-20T19:25:19.593Z,74.98
2023-03-20T19:27:46.434Z,74.94
2023-03-20T19:30:30.053Z,75.63
2023-03-20T19:32:56.805Z,75.54
2023-03-20T19:38:15.522Z,75.68
2023-03-20T19:40:47.240Z,75.89
2023-03-20T19:43:15.582Z,76.20
2023-03-20T19:45:43.887Z,75.90
2023-03-20T19:48:18.971Z,76.08
2023-03-20T19:50:47.420Z,75.80
2023-03-20T19:53:16.918Z,75.85
2023-03-20T19:55:44.296Z,76.12
2023-03-20T19:58:11.056Z,76.04
2023-03-20T20:00:56.834Z,76.37
2023-03-20T20:03:25.879Z,76.30
2023-03-20T20:05:53.582Z,76.17
2023-03-20T20:08:31.010Z,76.37
2023-03-20T20:11:06.954Z,76.35
2023-03-20T20:13:34.491Z,76.20
2023-03-20T20:16:01.487Z,76.18
2023-03-20T20:18:28.982Z,75.96
2023-03-20T20:22:06.333Z,76.21
2023-03-20T20:23:45.396Z,76.48
2023-03-20T20:26:11.910Z,76.20
2023-03-20T20:28:38.406Z,76.55
2023-03-20T20:31:04.943Z,76.45
2023-03-20T20:33:34.509Z,76.42
2023-03-20T20:36:52.719Z,76.53
2023-03-20T20:38:56.034Z,76.60
2023-03-20T20:41:22.722Z,76.70
2023-03-20T20:44:14.723Z,76.55
2023-03-20T20:46:35.623Z,76.61
2023-03-20T20:49:18.055Z,76.60
2023-03-20T20:51:45.230Z,76.85
2023-03-20T20:54:11.825Z,77.22
2023-03-20T20:56:38.360Z,77.18
2023-03-20T20:59:04.828Z,77.02
2023-03-20T21:01:31.396Z,77.27
2023-03-20T21:03:57.885Z,77.17
2023-03-20T21:06:38.660Z,77.23
2023-03-20T21:09:10.967Z,77.12
2023-03-20T21:11:37.871Z,77.32
2023-03-20T21:14:04.423Z,77.28
2023-03-20T21:16:31.198Z,77.29
2023-03-20T21:18:58.692Z,77.39
2023-03-20T21:21:25.385Z,77.85
2023-03-20T21:23:52.087Z,78.06
2023-03-20T21:26:18.709Z,78.22
2023-03-20T21:28:46.082Z,78.05
2023-03-20T21:31:26.570Z,77.98
2023-03-20T21:33:55.033Z,78.38
2023-03-20T21:36:23.438Z,78.49
2023-03-20T21:39:08.714Z,78.60
2023-03-20T21:41:40.836Z,78.40
2023-03-20T21:44:08.445Z,78.34
2023-03-20T22:03:44.004Z,78.58
2023-03-20T22:09:48.511Z,78.93
2023-03-20T22:15:16.400Z,79.17
2023-03-20T22:45:10.377Z,80.04
2023-03-20T22:47:37.450Z,79.80
2023-03-20T22:50:04.500Z,80.46
2023-03-20T22:52:45.878Z,80.27
2023-03-20T22:55:16.759Z,80.40
2023-03-20T22:57:52.936Z,80.49
2023-03-20T23:00:26.911Z,80.88
2023-03-20T23:02:57.466Z,80.69
2023-03-20T23:05:27.037Z,81.01
2023-03-20T23:07:53.520Z,80.60
2023-03-20T23:10:19.944Z,80.73
2023-03-20T23:12:46.381Z,80.60
2023-03-20T23:15:13.057Z,80.67
2023-03-20T23:17:39.478Z,80.88
2023-03-20T23:20:12.347Z,81.00
2023-03-20T23:22:40.647Z,80.71
2023-03-20T23:25:16.480Z,80.79
2023-03-20T23:27:50.361Z,80.90
2023-03-20T23:30:16.946Z,81.15
2023-03-20T23:32:43.426Z,81.28
2023-03-20T23:35:09.952Z,81.52
2023-03-20T23:37:36.654Z,81.54
2023-03-20T23:40:04.621Z,81.59
2023-03-20T23:42:31.219Z,81.78
2023-03-20T23:45:04.490Z,81.85
2023-03-20T23:47:44.373Z,81.78
2023-03-20T23:50:17.225Z,81.97
2023-03-20T23:52:57.075Z,81.83
2023-03-20T23:55:28.126Z,82.11
2023-03-20T23:57:54.509Z,81.67
